createdAt,value
2022-08-19T00:02:03.086Z,12.27
2022-08-19T00:04:33.408Z,9.48
2022-08-19T00:07:07.619Z,9.25
2022-08-19T00:09:34.376Z,11.00
2022-08-19T00:12:01.296Z,10.07
2022-08-19T00:14:28.802Z,10.82
2022-08-19T00:16:55.811Z,11.52
2022-08-19T00:19:23.811Z,10.68
2022-08-19T00:21:51.131Z,9.40
2022-08-19T00:24:20.167Z,11.60
2022-08-19T00:26:46.772Z,12.00
2022-08-19T00:29:20.236Z,10.65
2022-08-19T00:31:47.349Z,11.02
2022-08-19T00:34:15.541Z,11.68
2022-08-19T00:36:43.361Z,11.80
2022-08-19T00:39:10.619Z,9.85
2022-08-19T00:41:37.134Z,12.45
2022-08-19T00:44:09.498Z,11.18
2022-08-19T00:46:39.131Z,9.57
2022-08-19T00:49:20.655Z,10.05
2022-08-19T00:51:54.514Z,10.95
2022-08-19T00:54:31.234Z,9.98
2022-08-19T00:57:00.286Z,12.25
2022-08-19T01:00:01.128Z,12.10
2022-08-19T01:02:24.697Z,12.13
2022-08-19T01:04:51.148Z,12.07
2022-08-19T01:07:27.726Z,12.75
2022-08-19T01:09:54.823Z,11.93
2022-08-19T01:12:24.290Z,13.18
2022-08-19T01:14:51.498Z,12.10
2022-08-19T01:17:20.026Z,12.98
2022-08-19T01:19:48.486Z,12.70
2022-08-19T01:22:31.534Z,11.50
2022-08-19T01:24:59.675Z,11.85
2022-08-19T01:27:26.415Z,13.05
2022-08-19T01:29:58.365Z,11.88
2022-08-19T01:32:33.411Z,13.68
2022-08-19T01:35:02.919Z,12.32
2022-08-19T01:37:29.944Z,13.15
2022-08-19T01:39:56.563Z,13.50
2022-08-19T01:42:30.422Z,10.30
2022-08-19T01:44:57.940Z,14.15
2022-08-19T01:47:24.469Z,11.23
2022-08-19T01:49:50.884Z,10.90
2022-08-19T01:52:17.365Z,11.32
2022-08-19T01:54:43.800Z,12.95
2022-08-19T01:57:13.526Z,13.55
2022-08-19T01:59:48.732Z,13.93
2022-08-19T02:02:18.416Z,13.50
2022-08-19T02:04:48.020Z,14.30
2022-08-19T02:07:24.943Z,13.77
2022-08-19T02:09:54.861Z,12.02
2022-08-19T02:12:23.810Z,13.13
2022-08-19T02:14:52.539Z,12.48
2022-08-19T02:17:19.297Z,13.95
2022-08-19T02:19:45.776Z,13.00
2022-08-19T02:22:12.233Z,13.43
2022-08-19T02:24:45.734Z,14.05
2022-08-19T02:27:12.192Z,12.55
2022-08-19T02:29:38.757Z,11.27
2022-08-19T02:32:06.583Z,13.38
2022-08-19T02:34:33.154Z,11.68
2022-08-19T02:37:03.502Z,11.02
2022-08-19T02:39:36.778Z,10.80
2022-08-19T02:42:03.325Z,12.77
2022-08-19T02:44:31.998Z,11.50
2022-08-19T02:46:58.759Z,11.57
2022-08-19T02:49:29.715Z,9.73
2022-08-19T02:52:07.752Z,10.40
2022-08-19T02:54:34.501Z,12.68
2022-08-19T02:57:00.938Z,13.52
2022-08-19T02:59:31.306Z,12.20
2022-08-19T03:01:57.748Z,12.38
2022-08-19T03:04:25.252Z,10.27
2022-08-19T03:06:53.978Z,13.30
2022-08-19T03:09:27.315Z,13.82
2022-08-19T03:11:57.806Z,13.90
2022-08-19T03:14:24.207Z,13.45
2022-08-19T03:16:52.928Z,14.07
2022-08-19T03:19:22.144Z,14.38
2022-08-19T03:21:48.843Z,14.85
2022-08-19T03:24:19.685Z,13.85
2022-08-19T03:26:59.802Z,15.10
2022-08-19T03:29:32.548Z,13.15
2022-08-19T03:32:04.816Z,14.07
2022-08-19T03:34:36.377Z,14.65
2022-08-19T03:37:09.633Z,11.27
2022-08-19T03:39:38.598Z,15.35
2022-08-19T03:42:30.234Z,14.77
2022-08-19T03:44:59.797Z,14.57
2022-08-19T03:47:26.507Z,13.23
2022-08-19T03:49:53.008Z,13.35
2022-08-19T03:52:27.792Z,14.57
2022-08-19T03:54:54.293Z,14.82
2022-08-19T03:57:31.957Z,14.63
2022-08-19T04:00:03.912Z,13.82
2022-08-19T04:02:57.989Z,14.65
2022-08-19T04:05:29.565Z,11.90
2022-08-19T04:08:13.762Z,13.35
2022-08-19T04:10:41.488Z,14.23
2022-08-19T04:13:14.825Z,12.95
2022-08-19T04:15:42.993Z,12.55
2022-08-19T04:18:12.038Z,10.75
2022-08-19T04:20:51.901Z,13.48
2022-08-19T04:23:25.821Z,13.88
2022-08-19T04:25:52.396Z,11.80
2022-08-19T04:28:18.797Z,15.93
2022-08-19T04:30:51.332Z,14.48
2022-08-19T04:33:26.481Z,13.52
2022-08-19T04:35:59.258Z,13.70
2022-08-19T04:38:25.756Z,14.10
2022-08-19T04:41:11.113Z,15.35
2022-08-19T04:43:40.318Z,11.88
2022-08-19T04:46:11.386Z,11.65
2022-08-19T04:49:10.447Z,13.43
2022-08-19T04:51:45.272Z,12.23
2022-08-19T04:56:41.346Z,14.32
2022-08-19T04:59:17.864Z,11.60
2022-08-19T05:01:44.405Z,12.30
2022-08-19T05:04:10.815Z,14.48
2022-08-19T05:06:39.823Z,14.13
2022-08-19T05:09:13.010Z,13.35
2022-08-19T05:11:40.014Z,13.40
2022-08-19T05:14:15.870Z,13.75
2022-08-19T05:16:42.385Z,12.85
2022-08-19T05:19:27.512Z,14.20
2022-08-19T05:22:13.197Z,14.45
2022-08-19T05:25:02.368Z,13.43
2022-08-19T05:27:29.183Z,15.02
2022-08-19T05:30:08.876Z,10.75
2022-08-19T05:32:35.546Z,15.30
2022-08-19T05:35:02.030Z,12.00
2022-08-19T05:37:28.629Z,15.18
2022-08-19T05:39:55.760Z,14.52
2022-08-19T05:42:23.810Z,11.00
2022-08-19T05:44:52.842Z,13.30
2022-08-19T05:47:23.019Z,13.77
2022-08-19T05:49:51.325Z,14.45
2022-08-19T05:52:19.336Z,12.38
2022-08-19T05:54:51.114Z,11.98
2022-08-19T05:57:20.080Z,12.73
2022-08-19T05:59:57.618Z,12.50
2022-08-19T06:02:24.873Z,13.90
2022-08-19T06:04:51.380Z,12.25
2022-08-19T06:07:25.514Z,11.63
2022-08-19T06:10:00.998Z,11.50
2022-08-19T06:12:35.986Z,12.55
2022-08-19T06:15:09.858Z,13.13
2022-08-19T06:17:39.209Z,12.98
2022-08-19T06:20:09.687Z,12.23
2022-08-19T06:22:44.115Z,12.98
2022-08-19T06:25:12.170Z,10.30
2022-08-19T06:27:58.678Z,11.45
2022-08-19T06:30:29.094Z,13.35
2022-08-19T06:32:55.554Z,10.95
2022-08-19T06:35:22.111Z,11.00
2022-08-19T06:37:58.025Z,11.25
2022-08-19T06:40:28.393Z,11.40
2022-08-19T06:42:55.966Z,11.02
2022-08-19T06:45:34.396Z,11.00
2022-08-19T06:48:08.935Z,10.25
2022-08-19T06:50:39.462Z,10.90
2022-08-19T06:53:09.935Z,10.45
2022-08-19T06:55:36.440Z,11.18
2022-08-19T06:58:04.678Z,11.55
2022-08-19T07:03:06.293Z,10.02
2022-08-19T07:05:45.308Z,10.00
2022-08-19T07:08:35.049Z,10.60
2022-08-19T07:11:09.355Z,10.32
2022-08-19T07:13:38.652Z,9.48
2022-08-19T07:16:06.933Z,9.73
2022-08-19T07:18:38.856Z,10.02
2022-08-19T07:21:17.543Z,9.68
2022-08-19T07:23:44.794Z,8.63
2022-08-19T07:26:20.620Z,9.13
2022-08-19T07:28:55.935Z,9.18
2022-08-19T07:31:26.396Z,8.07
2022-08-19T07:34:00.257Z,7.93
2022-08-19T07:36:33.200Z,7.28
2022-08-19T07:39:02.501Z,8.13
2022-08-19T07:41:32.256Z,7.88
2022-08-19T07:44:04.450Z,8.70
2022-08-19T07:46:34.655Z,8.63
2022-08-19T07:49:01.711Z,8.80
2022-08-19T07:51:36.747Z,8.63
2022-08-19T07:54:04.672Z,8.40
2022-08-19T07:56:34.995Z,7.40
2022-08-19T07:59:04.181Z,7.53
2022-08-19T08:01:30.629Z,7.57
2022-08-19T08:04:24.000Z,7.85
2022-08-19T08:07:13.193Z,7.22
2022-08-19T08:09:50.073Z,7.43
2022-08-19T08:12:34.107Z,7.45
2022-08-19T08:15:15.010Z,6.50
2022-08-19T08:17:49.066Z,6.93
2022-08-19T08:20:30.024Z,6.07
2022-08-19T08:23:15.184Z,6.38
2022-08-19T08:25:48.031Z,6.43
2022-08-19T08:28:17.510Z,5.63
2022-08-19T08:30:46.703Z,5.95
2022-08-19T08:35:53.021Z,6.10
2022-08-19T08:38:19.540Z,5.78
2022-08-19T08:40:50.881Z,5.22
2022-08-19T08:43:32.378Z,5.50
2022-08-19T08:46:09.316Z,4.97
2022-08-19T08:48:47.391Z,5.07
2022-08-19T08:52:00.193Z,4.80
2022-08-19T08:54:34.858Z,4.43
2022-08-19T08:57:12.027Z,3.88
2022-08-19T08:59:42.462Z,4.25
2022-08-19T09:02:17.047Z,4.60
2022-08-19T09:04:43.677Z,4.40
2022-08-19T09:08:09.053Z,4.53
2022-08-19T09:10:55.194Z,4.53
2022-08-19T09:13:46.850Z,4.65
2022-08-19T09:16:21.944Z,4.65
2022-08-19T09:19:00.164Z,4.45
2022-08-19T09:21:30.586Z,4.20
2022-08-19T09:24:00.386Z,4.95
2022-08-19T09:26:47.579Z,4.22
2022-08-19T09:29:19.206Z,4.53
2022-08-19T09:31:51.596Z,4.93
2022-08-19T09:34:20.658Z,4.60
2022-08-19T09:36:47.286Z,4.07
2022-08-19T09:39:16.208Z,4.97
2022-08-19T09:41:47.286Z,3.83
2022-08-19T09:44:15.387Z,4.07
2022-08-19T09:46:44.273Z,3.95
2022-08-19T09:49:10.719Z,3.63
2022-08-19T09:51:50.843Z,3.20
2022-08-19T09:54:19.225Z,3.47
2022-08-19T09:56:57.080Z,3.33
2022-08-19T09:59:23.774Z,3.42
2022-08-19T10:01:52.314Z,3.65
2022-08-19T10:04:20.239Z,3.90
2022-08-19T10:06:53.767Z,4.07
2022-08-19T10:09:33.848Z,4.20
2022-08-19T10:12:03.526Z,3.63
2022-08-19T10:14:36.186Z,3.80
2022-08-19T10:17:17.698Z,4.25
2022-08-19T10:19:55.743Z,4.65
2022-08-19T10:22:23.401Z,4.13
2022-08-19T10:24:59.109Z,3.63
2022-08-19T10:27:33.635Z,3.45
2022-08-19T10:30:09.879Z,3.90
2022-08-19T10:32:39.257Z,3.35
2022-08-19T10:35:21.958Z,4.03
2022-08-19T10:37:56.852Z,3.70
2022-08-19T10:40:23.667Z,3.95
2022-08-19T10:42:52.364Z,3.55
2022-08-19T10:45:18.897Z,3.40
2022-08-19T10:47:48.206Z,3.67
2022-08-19T10:50:33.635Z,3.88
2022-08-19T10:53:12.129Z,3.28
2022-08-19T10:55:56.906Z,3.97
2022-08-19T10:58:27.083Z,4.10
2022-08-19T11:00:56.114Z,3.90
2022-08-19T11:03:24.116Z,3.88
2022-08-19T11:06:06.378Z,3.92
2022-08-19T11:08:53.131Z,3.78
2022-08-19T11:11:19.673Z,4.43
2022-08-19T11:14:33.952Z,4.47
2022-08-19T11:17:08.356Z,4.80
2022-08-19T11:19:39.821Z,4.13
2022-08-19T11:22:21.037Z,4.70
2022-08-19T11:24:47.509Z,5.80
2022-08-19T11:27:21.381Z,4.93
2022-08-19T11:29:53.555Z,5.22
2022-08-19T11:32:32.383Z,5.18
2022-08-19T11:34:58.907Z,6.00
2022-08-19T11:37:25.501Z,4.68
2022-08-19T11:39:54.946Z,5.05
2022-08-19T11:42:39.977Z,5.25
2022-08-19T11:45:07.026Z,4.72
2022-08-19T11:47:35.095Z,5.13
2022-08-19T11:50:01.562Z,5.15
2022-08-19T11:52:28.081Z,4.95
2022-08-19T11:54:54.796Z,5.22
2022-08-19T11:57:21.216Z,5.50
2022-08-19T11:59:52.821Z,4.38
2022-08-19T12:02:20.094Z,4.40
2022-08-19T12:04:49.591Z,4.13
2022-08-19T12:07:23.414Z,4.32
2022-08-19T12:09:49.845Z,4.15
2022-08-19T12:12:18.827Z,3.83
2022-08-19T12:14:45.401Z,3.35
2022-08-19T12:17:14.254Z,4.25
2022-08-19T12:19:49.397Z,4.07
2022-08-19T12:22:15.950Z,4.00
2022-08-19T12:24:42.367Z,3.97
2022-08-19T12:27:12.852Z,4.53
2022-08-19T12:29:42.409Z,4.38
2022-08-19T12:32:10.367Z,5.35
2022-08-19T12:34:45.418Z,4.22
2022-08-19T12:37:14.421Z,3.30
2022-08-19T12:39:50.491Z,4.18
2022-08-19T12:42:19.598Z,4.40
2022-08-19T12:44:55.461Z,4.00
2022-08-19T12:47:23.054Z,4.00
2022-08-19T12:49:53.339Z,3.67
2022-08-19T12:52:23.875Z,3.85
2022-08-19T12:54:54.026Z,3.90
2022-08-19T12:57:32.062Z,3.42
2022-08-19T12:59:59.332Z,3.67
2022-08-19T13:02:25.828Z,3.60
2022-08-19T13:05:04.461Z,3.50
2022-08-19T13:07:33.946Z,3.17
2022-08-19T13:10:01.077Z,3.08
2022-08-19T13:12:37.532Z,3.13
2022-08-19T13:15:10.994Z,2.72
2022-08-19T13:17:39.274Z,2.97
2022-08-19T13:20:09.809Z,3.35
2022-08-19T13:22:37.610Z,3.23
2022-08-19T13:25:06.252Z,3.55
2022-08-19T13:27:35.485Z,3.00
2022-08-19T13:30:26.894Z,3.17
2022-08-19T13:33:11.699Z,3.03
2022-08-19T13:36:01.466Z,3.08
2022-08-19T13:38:35.479Z,2.50
2022-08-19T13:41:11.041Z,2.42
2022-08-19T13:43:47.491Z,2.78
2022-08-19T13:46:20.767Z,2.90
2022-08-19T13:48:58.519Z,2.60
2022-08-19T13:51:25.017Z,3.15
2022-08-19T13:53:51.633Z,2.90
2022-08-19T13:56:28.506Z,3.08
2022-08-19T13:58:55.014Z,3.22
2022-08-19T14:01:27.408Z,2.90
2022-08-19T14:03:56.067Z,2.80
2022-08-19T14:06:23.271Z,3.03
2022-08-19T14:08:49.842Z,2.75
2022-08-19T14:11:16.870Z,2.33
2022-08-19T14:13:51.986Z,2.60
2022-08-19T14:16:18.646Z,3.00
2022-08-19T14:18:45.647Z,3.30
2022-08-19T14:21:21.464Z,2.78
2022-08-19T14:23:48.236Z,2.75
2022-08-19T14:26:19.631Z,3.28
2022-08-19T14:28:46.590Z,2.60
2022-08-19T14:31:20.005Z,2.15
2022-08-19T14:33:50.285Z,2.63
2022-08-19T14:36:17.034Z,2.97
2022-08-19T14:38:44.210Z,3.00
2022-08-19T14:41:19.534Z,2.35
2022-08-19T14:43:48.372Z,2.38
2022-08-19T14:46:29.702Z,2.60
2022-08-19T14:51:28.478Z,2.50
2022-08-19T14:53:55.045Z,2.15
2022-08-19T14:56:25.125Z,2.63
2022-08-19T14:59:01.570Z,2.45
2022-08-19T15:01:28.201Z,2.40
2022-08-19T15:03:56.863Z,2.10
2022-08-19T15:06:24.988Z,2.42
2022-08-19T15:08:55.135Z,2.20
2022-08-19T15:11:25.018Z,2.30
2022-08-19T15:14:12.578Z,2.08
2022-08-19T15:16:42.578Z,1.77
2022-08-19T15:19:09.605Z,2.13
2022-08-19T15:21:37.528Z,2.20
2022-08-19T15:24:10.304Z,1.90
2022-08-19T15:26:40.025Z,2.05
2022-08-19T15:29:06.497Z,2.30
2022-08-19T15:31:37.974Z,2.38
2022-08-19T15:34:07.024Z,1.90
2022-08-19T15:36:35.221Z,2.33
2022-08-19T15:39:09.608Z,2.55
2022-08-19T15:41:40.854Z,2.28
2022-08-19T15:44:13.027Z,2.10
2022-08-19T15:46:44.661Z,2.25
2022-08-19T15:49:17.381Z,2.20
2022-08-19T15:51:46.630Z,2.10
2022-08-19T15:54:17.730Z,2.22
2022-08-19T15:57:03.090Z,2.28
2022-08-19T15:59:51.658Z,1.75
2022-08-19T16:02:39.323Z,2.55
2022-08-19T16:05:28.025Z,2.70
2022-08-19T16:07:56.062Z,2.20
2022-08-19T16:10:29.732Z,2.40
2022-08-19T16:13:09.615Z,2.15
2022-08-19T16:15:44.727Z,2.75
2022-08-19T16:18:14.779Z,2.35
2022-08-19T16:20:44.256Z,2.13
2022-08-19T16:23:11.045Z,2.28
2022-08-19T16:25:44.665Z,2.13
2022-08-19T16:28:15.519Z,2.67
2022-08-19T16:30:51.225Z,2.38
2022-08-19T16:33:22.706Z,2.70
2022-08-19T16:35:52.008Z,2.38
2022-08-19T16:38:27.852Z,2.42
2022-08-19T16:41:01.647Z,2.78
2022-08-19T16:43:30.664Z,2.40
2022-08-19T16:45:58.200Z,2.40
2022-08-19T16:48:30.453Z,2.60
2022-08-19T16:50:57.936Z,2.58
2022-08-19T16:53:29.184Z,2.47
2022-08-19T16:56:03.623Z,2.05
2022-08-19T16:58:33.970Z,2.30
2022-08-19T17:01:07.522Z,2.40
2022-08-19T17:03:36.372Z,2.60
2022-08-19T17:06:17.795Z,2.10
2022-08-19T17:08:51.925Z,2.67
2022-08-19T17:11:19.812Z,2.28
2022-08-19T17:14:08.664Z,2.33
2022-08-19T17:16:36.357Z,2.10
2022-08-19T17:19:06.688Z,2.55
2022-08-19T17:21:38.054Z,2.45
2022-08-19T17:26:38.676Z,2.40
2022-08-19T17:29:05.834Z,2.70
2022-08-19T17:31:39.694Z,2.65
2022-08-19T17:34:06.153Z,2.45
2022-08-19T17:36:40.703Z,2.60
2022-08-19T17:39:07.140Z,2.92
2022-08-19T17:41:34.346Z,2.78
2022-08-19T17:44:02.370Z,3.22
2022-08-19T17:46:30.363Z,2.92
2022-08-19T17:48:57.689Z,2.70
2022-08-19T17:51:48.701Z,2.88
2022-08-19T17:54:19.689Z,2.80
2022-08-19T17:56:47.105Z,2.60
2022-08-19T17:59:14.608Z,2.97
2022-08-19T18:01:54.799Z,2.72
2022-08-19T18:04:25.871Z,3.25
2022-08-19T18:06:55.010Z,3.22
2022-08-19T18:09:27.627Z,3.25
2022-08-19T18:11:58.231Z,3.67
2022-08-19T18:14:34.413Z,3.40
2022-08-19T18:17:09.859Z,3.17
2022-08-19T18:19:41.910Z,3.20
2022-08-19T18:22:15.753Z,2.95
2022-08-19T18:24:42.248Z,3.30
2022-08-19T18:27:11.412Z,2.53
2022-08-19T18:29:46.771Z,3.17
2022-08-19T18:32:13.437Z,3.28
2022-08-19T18:34:46.752Z,3.60
2022-08-19T18:37:18.084Z,3.50
2022-08-19T18:40:05.992Z,3.10
2022-08-19T18:42:53.333Z,3.33
2022-08-19T18:45:38.347Z,3.40
2022-08-19T18:48:27.923Z,3.72
2022-08-19T18:50:57.193Z,3.60
2022-08-19T18:53:24.338Z,3.10
2022-08-19T18:55:54.423Z,3.35
2022-08-19T18:58:32.256Z,2.95
2022-08-19T19:01:02.609Z,3.65
2022-08-19T19:03:34.036Z,3.60
2022-08-19T19:06:04.465Z,3.72
2022-08-19T19:08:30.942Z,3.90
2022-08-19T19:11:05.772Z,3.58
2022-08-19T19:13:33.879Z,3.92
2022-08-19T19:16:11.770Z,3.22
2022-08-19T19:18:38.413Z,3.97
2022-08-19T19:21:11.797Z,4.15
2022-08-19T19:23:40.916Z,4.13
2022-08-19T19:26:16.813Z,3.67
2022-08-19T19:28:45.459Z,4.00
2022-08-19T19:31:26.497Z,4.35
2022-08-19T19:33:55.275Z,4.20
2022-08-19T19:36:23.224Z,4.20
2022-08-19T19:38:49.710Z,4.20
2022-08-19T19:41:23.311Z,4.28
2022-08-19T19:44:10.121Z,3.75
2022-08-19T19:46:43.464Z,4.15
2022-08-19T19:49:11.346Z,4.13
2022-08-19T19:51:41.706Z,4.55
2022-08-19T19:54:23.041Z,4.20
2022-08-19T19:56:50.256Z,4.32
2022-08-19T19:59:19.315Z,4.28
2022-08-19T20:01:47.851Z,4.13
2022-08-19T20:04:15.995Z,4.15
2022-08-19T20:06:45.771Z,4.60
2022-08-19T20:09:19.536Z,4.13
2022-08-19T20:11:58.270Z,4.45
2022-08-19T20:14:31.464Z,4.55
2022-08-19T20:17:07.141Z,3.97
2022-08-19T20:19:38.166Z,4.80
2022-08-19T20:22:06.069Z,4.15
2022-08-19T20:24:35.263Z,4.70
2022-08-19T20:27:11.856Z,4.40
2022-08-19T20:29:44.352Z,5.05
2022-08-19T20:32:13.241Z,4.65
2022-08-19T20:34:40.686Z,4.57
2022-08-19T20:37:09.480Z,4.85
2022-08-19T20:39:37.072Z,4.85
2022-08-19T20:42:03.732Z,4.72
2022-08-19T20:44:30.235Z,4.65
2022-08-19T20:47:04.038Z,4.60
2022-08-19T20:49:30.688Z,5.53
2022-08-19T20:52:06.991Z,4.60
2022-08-19T20:54:36.261Z,4.90
2022-08-19T20:57:07.269Z,5.55
2022-08-19T20:59:43.365Z,5.70
2022-08-19T21:02:11.100Z,5.75
2022-08-19T21:04:37.527Z,4.65
2022-08-19T21:07:04.282Z,5.20
2022-08-19T21:09:32.337Z,5.60
2022-08-19T21:11:58.850Z,4.88
2022-08-19T21:14:27.544Z,5.53
2022-08-19T21:17:00.909Z,5.40
2022-08-19T21:19:29.610Z,5.00
2022-08-19T21:22:02.886Z,5.90
2022-08-19T21:24:39.683Z,5.30
2022-08-19T21:27:12.878Z,5.20
2022-08-19T21:29:40.518Z,5.32
2022-08-19T21:32:17.905Z,6.07
2022-08-19T21:34:46.361Z,5.85
2022-08-19T21:37:25.216Z,5.53
2022-08-19T21:39:53.268Z,5.97
2022-08-19T21:42:20.382Z,5.55
2022-08-19T21:44:46.852Z,5.50
2022-08-19T21:47:13.624Z,5.70
2022-08-19T21:49:40.115Z,5.60
2022-08-19T21:52:07.047Z,5.20
2022-08-19T21:54:38.880Z,5.13
2022-08-19T21:57:10.225Z,5.30
2022-08-19T21:59:39.779Z,5.30
2022-08-19T22:02:20.301Z,4.82
2022-08-19T22:04:47.798Z,5.22
2022-08-19T22:07:14.760Z,4.85
2022-08-19T22:09:42.761Z,5.18
2022-08-19T22:12:20.959Z,5.38
2022-08-19T22:14:58.045Z,5.18
2022-08-19T22:17:27.405Z,5.88
2022-08-19T22:19:55.933Z,5.07
2022-08-19T22:22:24.861Z,4.95
2022-08-19T22:24:52.437Z,5.53
2022-08-19T22:27:19.836Z,4.93
2022-08-19T22:29:46.446Z,5.22
2022-08-19T22:32:26.756Z,5.82
2022-08-19T22:34:58.571Z,5.60
2022-08-19T22:37:32.941Z,4.68
2022-08-19T22:40:03.278Z,5.03
2022-08-19T22:42:38.957Z,5.40
2022-08-19T22:45:06.680Z,5.07
2022-08-19T22:47:41.983Z,4.50
2022-08-19T22:50:13.840Z,4.18
2022-08-19T22:52:51.770Z,5.07
2022-08-19T22:55:21.271Z,5.20
2022-08-19T22:57:53.408Z,5.10
2022-08-19T23:00:22.217Z,4.70
2022-08-19T23:02:51.825Z,4.95
2022-08-19T23:05:21.914Z,4.57
2022-08-19T23:07:52.507Z,4.85
2022-08-19T23:10:27.235Z,4.10
2022-08-19T23:13:15.987Z,4.10
2022-08-19T23:15:47.101Z,3.80
2022-08-19T23:18:13.913Z,4.85
2022-08-19T23:20:42.707Z,4.93
2022-08-19T23:23:12.513Z,4.43
2022-08-19T23:25:39.545Z,4.53
2022-08-19T23:28:24.565Z,4.85
2022-08-19T23:30:54.400Z,5.10
2022-08-19T23:33:42.920Z,4.38
2022-08-19T23:36:20.742Z,4.47
2022-08-19T23:38:55.969Z,4.40
2022-08-19T23:41:23.270Z,5.00
2022-08-19T23:43:51.456Z,4.70
2022-08-19T23:46:28.282Z,4.55
2022-08-19T23:48:56.052Z,4.63
2022-08-19T23:51:41.999Z,5.20
2022-08-19T23:54:08.486Z,5.20
2022-08-19T23:56:35.024Z,4.18
2022-08-19T23:59:08.042Z,4.78
